Time;durP1;ratioP1;P1;durP2;ratioP2;P2;SDS_P1;SDS_P2;PMS_P1;PMS_P2;Temp;Humidity;BMP_temperature;BMP_pressure;BME280_temperature;BME280_humidity;BME280_pressure;Samples;Min_cycle;Max_cycle;Signal;HPM_P1;HPM_P2
2023/11/03 00:01:09;;;;;;;5.07;4.75;;;;;;;9.75;76.94;96968.31;6020164;23;20027;-74
2023/11/03 00:03:36;;;;;;;3.95;3.83;;;;;;;10.43;77.36;97086.75;5991987;23;20019;-74
2023/11/03 00:06:06;;;;;;;6.47;5.93;;;;;;;10.21;77.40;97047.13;6014970;23;20105;-75
2023/11/03 00:08:38;;;;;;;4.40;4.20;;;;;;;10.36;77.64;97078.72;6013509;23;20011;-73
2023/11/03 00:11:04;;;;;;;4.07;3.88;;;;;;;10.06;77.55;97039.13;6007077;23;20560;-73
2023/11/03 00:13:34;;;;;;;3.97;3.80;;;;;;;10.31;78.04;97104.63;6000249;23;20077;-73
2023/11/03 00:16:02;;;;;;;6.03;5.72;;;;;;;10.29;78.22;97122.28;5997090;23;20037;-72
2023/11/03 00:18:29;;;;;;;4.20;4.00;;;;;;;10.27;78.37;97125.06;6009745;23;20022;-73
2023/11/03 00:20:55;;;;;;;7.72;4.25;;;;;;;10.16;78.73;97110.50;6016606;23;20339;-73
2023/11/03 00:23:22;;;;;;;4.72;4.32;;;;;;;10.24;78.19;97130.63;6024880;23;20011;-73
2023/11/03 00:25:49;;;;;;;4.13;3.92;;;;;;;9.76;78.28;97045.88;6020335;23;20551;-73
2023/11/03 00:28:16;;;;;;;4.13;3.92;;;;;;;10.23;78.48;97133.44;5994413;23;20086;-73
2023/11/03 00:30:42;;;;;;;4.20;4.00;;;;;;;10.25;78.54;97141.94;6002086;23;20496;-74
2023/11/03 00:33:09;;;;;;;5.20;5.00;;;;;;;10.26;77.74;97123.41;5972941;23;20042;-72
2023/11/03 00:35:36;;;;;;;4.22;4.03;;;;;;;9.60;78.45;97033.59;6019677;23;20050;-72
2023/11/03 00:38:02;;;;;;;6.45;6.03;;;;;;;10.17;78.21;97134.91;5992787;23;20034;-75
2023/11/03 00:40:29;;;;;;;4.20;4.00;;;;;;;10.21;77.84;97114.44;6021577;23;20054;-73
2023/11/03 00:43:00;;;;;;;4.10;3.90;;;;;;;10.21;77.87;97124.91;6024740;23;20065;-73
2023/11/03 00:45:26;;;;;;;4.10;3.90;;;;;;;9.43;77.94;97019.72;5995986;23;20061;-73
2023/11/03 00:47:54;;;;;;;4.57;3.88;;;;;;;9.95;78.17;97115.44;6021946;23;20443;-74
2023/11/03 00:50:21;;;;;;;4.10;3.90;;;;;;;9.67;78.70;97083.53;5995538;23;20450;-73
2023/11/03 00:52:51;;;;;;;4.13;3.92;;;;;;;9.91;78.29;97132.47;6020720;23;20580;-73
2023/11/03 00:55:19;;;;;;;4.38;4.18;;;;;;;10.12;78.55;97155.53;6022691;23;20036;-70
2023/11/03 00:57:46;;;;;;;4.20;4.00;;;;;;;10.10;78.26;97149.63;6014841;23;20054;-71
2023/11/03 01:00:13;;;;;;;4.50;4.30;;;;;;;10.08;78.45;97168.16;6019259;23;20030;-73
2023/11/03 01:02:43;;;;;;;4.35;4.05;;;;;;;10.07;77.97;97144.75;6012149;23;20466;-73
2023/11/03 01:05:10;;;;;;;4.90;4.30;;;;;;;9.41;78.55;97055.69;5990603;23;20097;-73
2023/11/03 01:07:40;;;;;;;4.28;4.07;;;;;;;10.02;78.29;97152.25;6020089;23;20519;-72
2023/11/03 01:10:15;;;;;;;5.45;5.25;;;;;;;9.97;79.39;97168.47;6008567;23;20024;-73
2023/11/03 01:12:42;;;;;;;4.85;4.38;;;;;;;9.95;79.41;97179.09;6020424;23;20050;-73
2023/11/03 01:15:12;;;;;;;5.20;4.35;;;;;;;9.85;79.23;97160.13;6015769;23;20107;-73
2023/11/03 01:17:39;;;;;;;4.13;3.92;;;;;;;9.62;79.90;97140.78;5996243;23;20503;-74
2023/11/03 01:20:12;;;;;;;5.38;5.03;;;;;;;9.60;80.11;97138.31;6012591;23;20050;-71
2023/11/03 01:22:40;;;;;;;4.05;3.85;;;;;;;9.47;79.47;97111.81;6017871;23;20448;-72
2023/11/03 01:25:12;;;;;;;4.05;3.85;;;;;;;9.89;80.14;97211.19;5992916;23;20094;-73
2023/11/03 01:27:40;;;;;;;4.10;3.90;;;;;;;9.73;79.76;97180.56;6017844;23;20046;-74
2023/11/03 01:30:11;;;;;;;5.38;5.18;;;;;;;9.48;80.24;97129.13;6017849;23;20037;-74
2023/11/03 01:32:38;;;;;;;3.80;3.60;;;;;;;9.92;80.24;97220.50;6000805;23;20072;-73
2023/11/03 01:35:06;;;;;;;4.22;4.03;;;;;;;10.00;79.75;97217.91;6011476;23;20035;-72
2023/11/03 01:37:33;;;;;;;3.90;3.70;;;;;;;10.02;79.76;97212.50;6000771;23;20325;-74
2023/11/03 01:40:00;;;;;;;5.53;5.22;;;;;;;10.02;80.45;97226.41;6013264;23;20286;-72
2023/11/03 01:42:26;;;;;;;4.13;3.92;;;;;;;9.47;80.51;97141.41;6017881;23;20030;-72
2023/11/03 01:44:52;;;;;;;4.45;4.15;;;;;;;10.03;80.08;97229.88;6016843;23;20034;-74
2023/11/03 01:47:19;;;;;;;4.00;3.80;;;;;;;10.04;79.54;97213.16;6019790;23;20027;-72
2023/11/03 01:49:49;;;;;;;4.30;4.10;;;;;;;9.82;79.73;97186.63;6017342;23;20085;-71
2023/11/03 01:52:19;;;;;;;3.90;3.60;;;;;;;9.45;80.63;97140.75;6013792;23;20111;-73
2023/11/03 01:54:45;;;;;;;4.00;3.80;;;;;;;9.65;80.60;97169.25;6021095;23;20031;-73
2023/11/03 01:57:12;;;;;;;4.10;3.90;;;;;;;9.96;80.70;97211.34;6014217;23;20112;-74
2023/11/03 01:59:41;;;;;;;3.97;3.78;;;;;;;8.63;80.85;97020.22;5990914;23;20564;-74
2023/11/03 02:02:08;;;;;;;5.15;4.95;;;;;;;9.75;81.43;97212.63;6018217;23;20051;-74
2023/11/03 02:04:35;;;;;;;5.93;4.00;;;;;;;9.60;82.41;97214.22;5982245;23;20035;-71
2023/11/03 02:07:01;;;;;;;4.10;3.90;;;;;;;9.83;82.58;97263.41;6023438;23;20077;-74
2023/11/03 02:09:28;;;;;;;4.07;3.88;;;;;;;9.81;82.83;97262.75;5991366;23;20034;-73
2023/11/03 02:11:54;;;;;;;4.30;4.10;;;;;;;9.62;83.06;97245.50;6017565;23;20137;-74
2023/11/03 02:14:22;;;;;;;4.22;4.03;;;;;;;9.76;82.71;97248.31;5992636;23;20007;-73
2023/11/03 02:16:49;;;;;;;3.70;3.55;;;;;;;8.46;82.77;97070.78;6001544;23;20037;-74
2023/11/03 02:19:16;;;;;;;4.10;3.90;;;;;;;8.76;82.21;97117.31;6023365;23;20029;-74
2023/11/03 02:21:43;;;;;;;4.10;3.90;;;;;;;9.81;83.32;97267.97;6017427;23;20129;-73
2023/11/03 02:24:10;;;;;;;4.97;4.78;;;;;;;9.79;83.18;97262.91;6005204;23;20034;-72
2023/11/03 02:26:36;;;;;;;4.72;4.35;;;;;;;9.79;82.55;97257.66;5992515;23;20545;-72
2023/11/03 02:29:03;;;;;;;4.00;3.80;;;;;;;9.27;82.12;97171.47;6027129;23;20030;-74
2023/11/03 02:31:33;;;;;;;3.90;3.70;;;;;;;9.31;82.59;97196.31;6000558;23;20097;-72
2023/11/03 02:33:59;;;;;;;5.32;5.05;;;;;;;9.73;82.68;97263.53;5995664;23;20010;-73
2023/11/03 02:36:26;;;;;;;7.53;4.00;;;;;;;9.72;82.76;97248.78;6017773;23;20038;-73
2023/11/03 02:38:53;;;;;;;4.15;3.95;;;;;;;9.47;83.45;97247.91;6019156;23;20399;-73
2023/11/03 02:41:19;;;;;;;4.07;3.88;;;;;;;9.24;84.38;97217.09;6016451;23;20121;-73
2023/11/03 02:43:46;;;;;;;3.95;3.75;;;;;;;9.62;84.22;97282.13;6077356;18;20520;-71
2023/11/03 02:46:16;;;;;;;4.30;4.10;;;;;;;9.61;83.80;97262.19;5998868;23;20022;-71
2023/11/03 02:48:44;;;;;;;3.60;3.50;;;;;;;9.48;83.83;97260.84;6057725;23;20055;-71
2023/11/03 02:51:11;;;;;;;3.90;3.70;;;;;;;9.55;84.26;97268.88;6054105;23;20039;-69
2023/11/03 02:53:38;;;;;;;3.78;3.63;;;;;;;9.54;84.91;97280.31;6049821;23;20488;-69
2023/11/03 02:56:06;;;;;;;4.90;4.70;;;;;;;9.54;85.14;97289.00;6034620;23;20151;-69
2023/11/03 02:58:40;;;;;;;3.70;3.60;;;;;;;9.63;84.99;97304.75;6034950;23;20033;-69
2023/11/03 03:01:08;;;;;;;4.28;4.00;;;;;;;9.47;84.38;97247.91;6056535;23;20059;-68
2023/11/03 03:03:35;;;;;;;3.60;3.50;;;;;;;9.68;84.71;97295.44;6034430;23;20034;-69
2023/11/03 03:06:03;;;;;;;5.63;5.32;;;;;;;9.69;84.05;97277.94;6013457;23;20512;-71
2023/11/03 03:08:33;;;;;;;4.25;4.05;;;;;;;9.48;84.50;97245.13;6034879;23;20014;-71
2023/11/03 03:11:03;;;;;;;4.40;4.20;;;;;;;9.63;84.74;97281.19;6031033;23;20405;-70
2023/11/03 03:13:30;;;;;;;3.60;3.50;;;;;;;9.68;83.89;97271.88;6033154;23;20038;-71
2023/11/03 03:15:58;;;;;;;5.10;4.70;;;;;;;8.98;84.35;97173.47;6029966;23;20327;-69
2023/11/03 03:18:25;;;;;;;4.20;4.00;;;;;;;8.52;84.27;97106.72;6059970;23;20052;-69
2023/11/03 03:20:52;;;;;;;4.07;3.78;;;;;;;9.45;84.25;97234.97;6059609;23;20088;-70
2023/11/03 03:23:18;;;;;;;3.70;3.50;;;;;;;9.59;83.97;97252.69;6039860;23;20926;-70
2023/11/03 03:25:45;;;;;;;3.92;3.72;;;;;;;9.49;84.02;97248.56;6065778;23;20434;-69
2023/11/03 03:28:12;;;;;;;4.72;4.53;;;;;;;9.34;84.11;97216.94;6029083;23;20243;-68
2023/11/03 03:30:38;;;;;;;3.63;3.53;;;;;;;9.18;84.19;97179.28;6004319;23;20026;-71
2023/11/03 03:33:05;;;;;;;4.00;3.80;;;;;;;9.52;83.66;97229.91;6057852;23;20282;-69
2023/11/03 03:35:32;;;;;;;4.10;3.90;;;;;;;8.39;84.62;97066.16;6030737;23;20014;-69
2023/11/03 03:37:59;;;;;;;4.85;4.65;;;;;;;9.45;84.76;97248.06;6056285;23;20123;-70
2023/11/03 03:40:26;;;;;;;4.10;3.90;;;;;;;9.27;84.81;97226.41;6038827;23;20030;-70
2023/11/03 03:42:53;;;;;;;3.97;3.78;;;;;;;8.24;85.02;97057.25;6027112;23;20354;-69
2023/11/03 03:45:20;;;;;;;3.70;3.60;;;;;;;9.27;85.36;97234.25;6026762;23;20026;-68
2023/11/03 03:47:46;;;;;;;4.00;3.80;;;;;;;9.43;85.20;97272.75;6035065;23;20107;-68
2023/11/03 03:50:13;;;;;;;4.40;4.20;;;;;;;9.41;86.30;97287.78;6019830;23;20292;-69
2023/11/03 03:52:40;;;;;;;4.43;4.20;;;;;;;9.44;86.91;97304.00;6029216;23;20027;-69
2023/11/03 03:55:08;;;;;;;4.00;3.80;;;;;;;9.29;86.58;97266.31;6037428;23;20480;-71
2023/11/03 03:57:35;;;;;;;3.80;3.60;;;;;;;8.81;87.58;97218.81;6037802;23;20049;-70
2023/11/03 04:00:07;;;;;;;5.07;4.88;;;;;;;9.45;87.40;97310.88;6061390;23;20078;-68
2023/11/03 04:02:33;;;;;;;4.07;3.88;;;;;;;9.22;87.49;97291.44;6049960;23;20033;-70
2023/11/03 04:05:01;;;;;;;4.00;3.80;;;;;;;9.19;88.66;97300.44;6033875;23;20309;-68
2023/11/03 04:07:29;;;;;;;4.10;3.90;;;;;;;9.30;89.30;97315.88;6059585;23;20076;-70
2023/11/03 04:09:56;;;;;;;4.38;4.18;;;;;;;9.32;88.50;97313.94;6002116;23;20447;-68
2023/11/03 04:12:23;;;;;;;3.80;3.60;;;;;;;9.23;89.14;97312.22;6031641;23;20083;-69
2023/11/03 04:14:51;;;;;;;3.47;3.38;;;;;;;9.19;89.71;97313.50;6054744;23;20026;-71
2023/11/03 04:17:18;;;;;;;4.20;4.00;;;;;;;9.10;90.23;97299.56;6036207;23;20034;-70
2023/11/03 04:19:45;;;;;;;3.58;3.38;;;;;;;9.15;89.88;97318.22;6040313;23;20027;-69
2023/11/03 04:22:11;;;;;;;5.78;5.28;;;;;;;9.14;90.90;97326.22;6033448;23;20128;-68
2023/11/03 04:24:38;;;;;;;4.15;3.85;;;;;;;8.90;90.99;97305.97;6032746;23;20043;-72
2023/11/03 04:27:05;;;;;;;3.88;3.67;;;;;;;9.03;91.46;97347.41;6005128;23;20117;-68
2023/11/03 04:29:31;;;;;;;5.72;4.28;;;;;;;8.87;92.68;97329.81;6039650;23;20452;-68
2023/11/03 04:31:59;;;;;;;4.68;4.47;;;;;;;8.96;92.75;97355.03;6032261;23;20144;-69
2023/11/03 04:34:25;;;;;;;4.40;4.20;;;;;;;8.96;92.57;97336.72;6028919;23;20026;-69
2023/11/03 04:36:52;;;;;;;3.80;3.60;;;;;;;9.05;93.05;97359.38;6029382;23;20025;-69
2023/11/03 04:39:19;;;;;;;5.57;4.20;;;;;;;8.98;93.54;97359.16;6032429;23;20400;-71
2023/11/03 04:41:46;;;;;;;3.80;3.60;;;;;;;8.89;94.35;97367.09;6033579;23;20060;-67
2023/11/03 04:44:13;;;;;;;4.78;4.47;;;;;;;8.61;94.57;97327.16;6028686;23;20002;-69
2023/11/03 04:46:42;;;;;;;4.40;4.20;;;;;;;8.94;94.80;97380.53;6018454;23;20033;-69
2023/11/03 04:49:10;;;;;;;4.20;4.00;;;;;;;8.95;94.57;97388.22;6035287;23;20277;-69
2023/11/03 04:51:38;;;;;;;4.38;3.97;;;;;;;8.89;95.68;97391.44;6024729;23;20022;-71
2023/11/03 04:54:05;;;;;;;5.50;5.13;;;;;;;8.85;95.70;97384.88;6031574;23;20030;-70
2023/11/03 04:56:32;;;;;;;4.45;4.20;;;;;;;8.95;95.76;97390.03;6056132;23;20100;-70
2023/11/03 04:59:00;;;;;;;4.05;3.85;;;;;;;8.91;95.89;97388.69;6034104;23;20461;-68
2023/11/03 05:01:28;;;;;;;4.00;3.80;;;;;;;8.89;96.31;97390.63;6049658;23;20085;-68
2023/11/03 05:03:55;;;;;;;4.32;4.10;;;;;;;8.50;97.10;97351.72;6050808;23;20030;-71
2023/11/03 05:06:21;;;;;;;3.70;3.60;;;;;;;8.92;96.74;97401.63;6005564;23;20043;-71
2023/11/03 05:08:48;;;;;;;4.47;4.03;;;;;;;8.23;96.16;97289.88;6045005;23;20049;-69
2023/11/03 05:11:15;;;;;;;7.72;4.38;;;;;;;8.94;96.35;97404.91;6029128;23;20122;-69
2023/11/03 05:13:43;;;;;;;3.70;3.60;;;;;;;8.75;96.30;97371.88;6055987;23;20072;-69
2023/11/03 05:16:11;;;;;;;5.38;5.07;;;;;;;7.61;96.19;97219.28;6029128;23;20430;-70
2023/11/03 05:18:38;;;;;;;3.70;3.50;;;;;;;8.69;97.48;97384.72;6053290;23;20210;-69
2023/11/03 05:21:06;;;;;;;3.70;3.50;;;;;;;8.77;97.71;97409.16;6020993;23;20187;-70
2023/11/03 05:23:32;;;;;;;4.30;4.00;;;;;;;8.26;98.36;97334.81;6025585;23;20402;-71
2023/11/03 05:26:00;;;;;;;4.95;4.70;;;;;;;8.70;98.73;97422.97;6046548;23;20054;-70
2023/11/03 05:28:27;;;;;;;4.18;3.92;;;;;;;8.67;99.86;97426.72;6022071;23;20481;-68
2023/11/03 05:30:54;;;;;;;3.83;3.65;;;;;;;8.50;99.39;97411.81;6030776;23;20211;-68
2023/11/03 05:33:20;;;;;;;4.00;3.80;;;;;;;8.72;99.50;97427.09;6016201;23;20003;-70
2023/11/03 05:35:47;;;;;;;3.78;3.67;;;;;;;8.59;99.69;97408.31;6043605;23;20014;-69
2023/11/03 05:38:15;;;;;;;5.53;5.22;;;;;;;8.57;99.78;97405.03;6006338;23;20226;-70
2023/11/03 05:40:43;;;;;;;3.63;3.53;;;;;;;8.70;99.49;97434.25;6051703;23;20029;-69
2023/11/03 05:43:09;;;;;;;3.83;3.70;;;;;;;8.62;99.92;97420.28;6028027;23;20074;-68
2023/11/03 05:45:39;;;;;;;4.95;4.55;;;;;;;8.64;100.00;97416.56;6056163;23;20392;-70
2023/11/03 05:48:07;;;;;;;4.93;4.72;;;;;;;8.65;100.00;97438.28;6038123;23;20022;-70
2023/11/03 05:50:33;;;;;;;4.93;4.35;;;;;;;8.02;100.00;97363.28;6065244;23;20051;-69
2023/11/03 05:53:00;;;;;;;3.90;3.70;;;;;;;8.63;100.00;97471.59;6015553;23;20052;-71
2023/11/03 05:55:26;;;;;;;6.20;4.40;;;;;;;8.43;100.00;97419.44;6054929;23;20055;-70
2023/11/03 05:57:56;;;;;;;3.95;3.75;;;;;;;7.99;100.00;97346.94;6058810;23;20026;-70
2023/11/03 06:00:27;;;;;;;4.00;3.80;;;;;;;8.57;100.00;97450.28;6034698;23;20026;-69
2023/11/03 06:02:55;;;;;;;4.22;4.00;;;;;;;7.78;100.00;97330.72;6059789;23;20473;-68
2023/11/03 06:05:22;;;;;;;4.20;3.88;;;;;;;8.56;100.00;97445.22;6031738;23;20462;-69
2023/11/03 06:07:48;;;;;;;3.72;3.63;;;;;;;8.51;100.00;97448.25;6031198;23;20057;-68
2023/11/03 06:10:15;;;;;;;3.60;3.50;;;;;;;7.86;100.00;97363.91;6057998;23;20882;-68
2023/11/03 06:12:42;;;;;;;4.15;3.95;;;;;;;8.50;100.00;97477.16;6037251;23;20034;-70
2023/11/03 06:15:09;;;;;;;6.50;3.70;;;;;;;8.07;100.00;97408.06;6066024;23;20038;-69
2023/11/03 06:17:35;;;;;;;4.07;3.78;;;;;;;8.29;100.00;97446.03;6058580;23;20026;-71
2023/11/03 06:20:03;;;;;;;5.20;5.00;;;;;;;8.22;100.00;97448.41;6052190;23;20409;-72
2023/11/03 06:22:30;;;;;;;4.45;4.10;;;;;;;8.16;100.00;97443.78;6052032;23;20030;-70
2023/11/03 06:24:57;;;;;;;4.00;3.70;;;;;;;8.32;100.00;97470.09;6034685;23;20138;-70
2023/11/03 06:27:24;;;;;;;4.13;3.70;;;;;;;8.31;100.00;97463.19;6030335;23;20138;-69
2023/11/03 06:29:51;;;;;;;4.10;3.90;;;;;;;8.16;100.00;97459.44;6036336;23;20161;-70
2023/11/03 06:32:18;;;;;;;4.18;3.88;;;;;;;7.89;100.00;97416.66;6063248;23;20018;-69
2023/11/03 06:34:44;;;;;;;3.90;3.70;;;;;;;8.11;100.00;97446.81;6065431;23;20132;-70
2023/11/03 06:37:11;;;;;;;4.32;4.10;;;;;;;8.24;100.00;97479.59;6047140;23;20022;-71
2023/11/03 06:39:38;;;;;;;4.28;4.07;;;;;;;7.54;100.00;97359.94;6050510;23;20483;-70
2023/11/03 06:42:08;;;;;;;5.93;5.20;;;;;;;8.04;100.00;97440.53;6058973;23;20101;-71
2023/11/03 06:44:34;;;;;;;4.60;4.40;;;;;;;8.15;100.00;97456.00;6023104;23;20135;-71
2023/11/03 06:47:01;;;;;;;6.07;4.22;;;;;;;8.49;100.00;97499.03;6024097;23;20195;-73
2023/11/03 06:49:27;;;;;;;3.92;3.72;;;;;;;8.25;100.00;97457.75;6036207;23;20022;-71
2023/11/03 06:51:57;;;;;;;3.85;3.72;;;;;;;8.17;100.00;97430.53;6055566;23;20357;-71
2023/11/03 06:54:27;;;;;;;4.43;4.18;;;;;;;8.63;100.00;97485.47;6063045;23;20270;-69
2023/11/03 06:56:54;;;;;;;3.85;3.65;;;;;;;8.33;100.00;97439.56;6047583;23;20037;-70
2023/11/03 06:59:21;;;;;;;4.10;3.90;;;;;;;8.13;100.00;97404.88;6056646;23;20046;-70
2023/11/03 07:01:48;;;;;;;4.00;3.80;;;;;;;8.82;100.00;97496.78;6039673;23;20029;-69
2023/11/03 07:04:16;;;;;;;3.90;3.70;;;;;;;8.66;100.00;97437.31;6051631;23;20421;-71
2023/11/03 07:06:43;;;;;;;4.03;3.83;;;;;;;8.48;100.00;97395.47;6019901;23;20084;-69
2023/11/03 07:09:10;;;;;;;13.95;4.22;;;;;;;7.86;100.00;97283.81;6022139;23;20039;-70
2023/11/03 07:11:36;;;;;;;4.78;4.45;;;;;;;8.92;100.00;97434.78;6057932;23;20026;-70
2023/11/03 07:14:05;;;;;;;6.07;5.53;;;;;;;8.72;100.00;97398.34;6050225;23;20022;-70
2023/11/03 07:16:33;;;;;;;4.50;4.20;;;;;;;9.05;100.00;97448.31;6055254;23;20101;-71
2023/11/03 07:19:00;;;;;;;6.10;5.13;;;;;;;8.72;99.80;97405.34;6067625;23;20029;-71
2023/11/03 07:21:26;;;;;;;4.32;3.95;;;;;;;8.88;99.87;97417.72;6004400;23;20046;-70
2023/11/03 07:23:53;;;;;;;3.72;3.53;;;;;;;9.03;99.49;97465.94;6050200;23;20033;-71
2023/11/03 07:26:21;;;;;;;4.20;3.90;;;;;;;7.79;99.84;97261.88;6010873;23;20026;-71
2023/11/03 07:28:47;;;;;;;4.00;3.80;;;;;;;9.11;99.25;97492.16;6054101;23;20412;-70
2023/11/03 07:31:14;;;;;;;4.00;3.80;;;;;;;9.10;99.48;97459.16;6040509;23;20046;-71
2023/11/03 07:33:41;;;;;;;4.50;4.20;;;;;;;9.11;99.37;97460.78;6053553;23;20061;-69
2023/11/03 07:36:10;;;;;;;5.32;5.07;;;;;;;9.11;99.30;97455.53;6055460;23;20087;-72
2023/11/03 07:38:36;;;;;;;4.40;4.10;;;;;;;9.10;99.52;97481.84;6051797;23;20630;-70
2023/11/03 07:41:05;;;;;;;3.75;3.63;;;;;;;8.94;98.67;97430.22;6053270;23;20407;-70
2023/11/03 07:43:31;;;;;;;4.57;4.35;;;;;;;8.93;98.86;97413.69;6026787;23;20032;-69
2023/11/03 07:45:58;;;;;;;5.22;4.82;;;;;;;8.89;98.28;97383.59;6051909;23;20495;-69
2023/11/03 07:48:24;;;;;;;4.20;4.00;;;;;;;9.15;96.68;97383.63;6063805;23;20020;-70
2023/11/03 07:50:51;;;;;;;4.30;4.10;;;;;;;9.10;96.34;97372.81;6053351;23;20026;-70
2023/11/03 07:53:18;;;;;;;4.03;3.83;;;;;;;9.10;96.65;97367.59;6047232;23;20026;-70
2023/11/03 07:55:44;;;;;;;4.47;4.05;;;;;;;9.42;97.29;97431.59;6036110;23;20026;-70
2023/11/03 07:58:11;;;;;;;5.20;5.00;;;;;;;9.02;97.81;97378.00;6058682;23;20711;-73
2023/11/03 08:00:38;;;;;;;4.18;3.97;;;;;;;8.51;96.84;97294.06;6034995;23;20078;-71
2023/11/03 08:03:07;;;;;;;4.00;3.78;;;;;;;9.07;97.20;97401.06;6028697;23;20046;-70
2023/11/03 08:05:34;;;;;;;6.38;4.00;;;;;;;9.24;97.23;97425.53;6060360;23;20049;-69
2023/11/03 08:08:04;;;;;;;11.82;4.93;;;;;;;8.63;97.11;97340.91;6056551;23;20018;-69
2023/11/03 08:10:31;;;;;;;3.85;3.67;;;;;;;8.64;97.98;97382.56;6057478;23;20046;-70
2023/11/03 08:12:58;;;;;;;4.50;3.90;;;;;;;8.66;99.65;97419.84;6059005;23;20038;-70
2023/11/03 08:15:24;;;;;;;4.40;4.00;;;;;;;9.11;100.00;97520.94;6049517;23;20022;-69
2023/11/03 08:17:51;;;;;;;4.00;3.80;;;;;;;8.80;100.00;97478.66;6042374;23;20139;-71
2023/11/03 08:20:18;;;;;;;4.10;3.90;;;;;;;8.79;100.00;97508.38;6050264;23;21339;-70
2023/11/03 08:22:48;;;;;;;4.00;3.80;;;;;;;8.62;100.00;97493.47;6029908;23;20109;-69
2023/11/03 08:25:15;;;;;;;3.83;3.70;;;;;;;9.33;100.00;97581.66;6003253;23;20026;-70
2023/11/03 08:27:41;;;;;;;4.00;3.80;;;;;;;9.44;100.00;97609.41;6053811;23;20087;-70
2023/11/03 08:30:08;;;;;;;4.90;4.70;;;;;;;9.29;100.00;97569.84;6003735;23;20246;-70
2023/11/03 08:32:36;;;;;;;4.30;4.10;;;;;;;9.01;100.00;97493.22;6028036;23;20038;-71
2023/11/03 08:35:07;;;;;;;4.55;4.25;;;;;;;9.23;98.69;97502.41;6058451;23;20668;-70
2023/11/03 08:37:34;;;;;;;4.40;4.13;;;;;;;9.32;97.30;97491.88;6060760;23;20234;-68
2023/11/03 08:40:01;;;;;;;5.13;4.85;;;;;;;9.82;96.49;97558.50;6050802;23;20033;-71
2023/11/03 08:42:32;;;;;;;4.68;4.38;;;;;;;9.49;96.87;97505.09;6054836;23;20113;-68
2023/11/03 08:44:58;;;;;;;4.57;4.35;;;;;;;9.51;95.68;97474.34;6051808;23;20026;-70
2023/11/03 08:47:25;;;;;;;4.28;4.00;;;;;;;9.89;94.56;97535.97;6028210;23;20072;-69
2023/11/03 08:49:52;;;;;;;4.15;3.95;;;;;;;9.73;95.29;97509.69;6005306;23;20464;-70
2023/11/03 08:52:19;;;;;;;4.35;4.07;;;;;;;10.12;94.85;97556.41;6048224;23;20104;-69
2023/11/03 08:54:46;;;;;;;5.20;4.80;;;;;;;10.19;94.13;97545.16;6048504;23;20018;-68
2023/11/03 08:57:13;;;;;;;11.93;4.82;;;;;;;10.35;92.78;97533.16;6025015;23;20807;-68
2023/11/03 08:59:39;;;;;;;4.10;3.90;;;;;;;9.70;91.46;97402.59;6045814;23;20022;-69
2023/11/03 09:02:06;;;;;;;5.50;5.15;;;;;;;10.33;91.18;97491.38;6050348;23;20014;-71
2023/11/03 09:04:33;;;;;;;4.07;3.88;;;;;;;10.38;91.01;97514.47;6066688;23;20030;-71
2023/11/03 09:07:00;;;;;;;4.03;3.83;;;;;;;10.53;90.57;97530.44;6052854;23;20300;-70
2023/11/03 09:09:27;;;;;;;4.10;3.90;;;;;;;10.45;89.92;97507.63;6023408;23;20018;-71
2023/11/03 09:11:54;;;;;;;4.68;4.43;;;;;;;10.60;89.35;97531.44;6028805;23;20018;-69
2023/11/03 09:14:20;;;;;;;5.35;3.97;;;;;;;9.91;88.63;97408.28;6027292;23;20011;-71
2023/11/03 09:16:47;;;;;;;6.93;4.28;;;;;;;10.25;88.17;97457.22;6028300;23;20025;-71
2023/11/03 09:19:15;;;;;;;4.15;3.90;;;;;;;10.35;88.08;97467.63;6059477;23;20024;-70
2023/11/03 09:21:44;;;;;;;5.10;4.80;;;;;;;10.40;86.82;97470.56;6051227;23;20019;-69
2023/11/03 09:24:10;;;;;;;5.60;5.22;;;;;;;10.77;87.20;97520.03;6045459;23;20200;-70
2023/11/03 09:26:37;;;;;;;4.40;4.20;;;;;;;10.54;86.10;97474.41;6051377;23;20010;-69
2023/11/03 09:29:03;;;;;;;4.20;4.00;;;;;;;10.86;85.73;97513.00;6034121;23;20022;-71
2023/11/03 09:31:30;;;;;;;4.50;4.07;;;;;;;10.95;86.01;97540.09;6060893;23;20010;-69
2023/11/03 09:33:56;;;;;;;4.82;4.63;;;;;;;11.02;85.34;97527.97;6006382;23;20101;-67
2023/11/03 09:36:23;;;;;;;6.88;4.68;;;;;;;11.09;84.34;97523.72;6062495;23;20856;-70
2023/11/03 09:38:50;;;;;;;4.75;4.35;;;;;;;10.48;83.83;97422.59;6049751;23;20030;-69
2023/11/03 09:41:19;;;;;;;4.53;4.18;;;;;;;11.11;83.71;97532.25;6033459;23;20030;-70
2023/11/03 09:43:47;;;;;;;4.50;4.10;;;;;;;10.53;82.55;97436.88;6053868;23;20030;-70
2023/11/03 09:46:14;;;;;;;4.40;4.20;;;;;;;11.14;83.42;97542.41;6019760;23;20513;-69
2023/11/03 09:48:41;;;;;;;5.72;4.03;;;;;;;10.66;83.46;97493.28;6055907;23;20038;-69
2023/11/03 09:51:08;;;;;;;7.07;4.22;;;;;;;11.13;83.59;97525.03;6041463;23;20033;-69
2023/11/03 09:53:36;;;;;;;4.35;4.15;;;;;;;11.40;82.04;97523.09;6062543;23;20025;-70
2023/11/03 09:56:04;;;;;;;5.70;5.40;;;;;;;11.31;81.20;97472.41;6008363;23;20034;-70
2023/11/03 09:58:31;;;;;;;5.18;4.78;;;;;;;11.34;80.05;97456.31;6032490;23;20005;-72
2023/11/03 10:01:00;;;;;;;4.30;4.10;;;;;;;10.38;79.96;97279.41;6017804;23;20046;-70
2023/11/03 10:03:27;;;;;;;11.65;4.28;;;;;;;11.50;78.73;97429.22;6051960;23;20080;-68
2023/11/03 10:05:55;;;;;;;5.55;4.85;;;;;;;11.78;78.98;97513.72;6045731;23;20029;-70
2023/11/03 10:08:23;;;;;;;4.50;4.20;;;;;;;11.83;80.68;97530.81;6018566;23;20144;-70
2023/11/03 10:10:49;;;;;;;5.00;4.60;;;;;;;11.71;78.47;97420.81;6062452;23;20010;-70
2023/11/03 10:13:20;;;;;;;4.45;4.03;;;;;;;12.15;76.25;97395.91;6061539;23;20017;-69
2023/11/03 10:15:47;;;;;;;7.00;5.35;;;;;;;12.58;75.05;97407.66;6050926;23;20037;-69
2023/11/03 10:18:13;;;;;;;4.50;4.30;;;;;;;12.66;73.40;97379.66;6038363;23;20214;-69
2023/11/03 10:20:41;;;;;;;4.60;4.40;;;;;;;12.01;72.77;97265.19;6043739;23;20487;-71
2023/11/03 10:23:08;;;;;;;4.38;4.18;;;;;;;12.88;72.63;97404.34;6046583;23;20085;-72
2023/11/03 10:25:35;;;;;;;4.60;4.40;;;;;;;12.94;72.09;97390.47;6065594;23;20206;-70
2023/11/03 10:28:04;;;;;;;5.82;5.45;;;;;;;12.92;70.82;97337.19;6062846;23;20037;-70
2023/11/03 10:30:31;;;;;;;8.43;4.50;;;;;;;13.01;71.05;97391.44;6034183;23;20038;-70
2023/11/03 10:32:58;;;;;;;6.15;4.93;;;;;;;12.55;71.23;97309.88;6010252;23;20117;-70
2023/11/03 10:35:27;;;;;;;8.40;4.75;;;;;;;12.46;72.30;97361.69;6056269;23;20441;-70
2023/11/03 10:37:54;;;;;;;4.32;4.13;;;;;;;12.69;71.71;97392.47;6063998;23;20565;-70
2023/11/03 10:40:21;;;;;;;4.40;4.20;;;;;;;11.51;71.03;97218.16;6034224;23;20030;-71
2023/11/03 10:42:50;;;;;;;4.65;4.45;;;;;;;12.45;72.47;97391.63;6060208;23;20081;-71
2023/11/03 10:45:19;;;;;;;13.73;4.50;;;;;;;12.76;72.16;97412.63;6022743;23;20088;-70
2023/11/03 10:48:13;;;;;;;4.88;4.63;;;;;;;13.65;70.18;97453.44;6060609;23;20053;-70
2023/11/03 10:50:59;;;;;;;5.60;4.80;;;;;;;13.37;68.76;97340.78;6028474;23;20022;-70
2023/11/03 10:54:13;;;;;;;4.70;4.40;;;;;;;12.28;69.88;97233.13;6045138;23;20026;-69
2023/11/03 10:56:42;;;;;;;5.00;4.70;;;;;;;13.23;69.05;97370.47;6019530;23;20023;-71
2023/11/03 10:59:29;;;;;;;4.40;4.20;;;;;;;13.21;69.63;97402.28;6032453;23;20453;-69
2023/11/03 11:02:27;;;;;;;6.83;6.43;;;;;;;12.96;70.19;97407.72;6057560;23;20538;-69
2023/11/03 11:05:11;;;;;;;5.57;4.40;;;;;;;13.07;70.80;97453.91;6058148;23;20022;-70
2023/11/03 11:07:40;;;;;;;4.65;4.45;;;;;;;12.45;70.84;97367.13;6059537;23;20021;-70
2023/11/03 11:10:08;;;;;;;15.43;6.60;;;;;;;12.24;71.02;97338.84;5998286;23;20067;-71
2023/11/03 11:12:56;;;;;;;5.78;5.35;;;;;;;12.80;71.12;97447.31;6059038;23;20077;-70
2023/11/03 11:15:23;;;;;;;4.38;4.10;;;;;;;12.05;72.10;97413.69;6035195;23;20032;-71
2023/11/03 11:17:51;;;;;;;9.95;4.47;;;;;;;12.03;73.27;97470.84;6002039;23;20035;-71
2023/11/03 11:20:19;;;;;;;4.72;4.50;;;;;;;12.11;73.62;97507.63;6047650;23;20026;-69
2023/11/03 11:23:05;;;;;;;5.40;4.85;;;;;;;11.62;74.16;97476.16;6046214;23;20339;-70
2023/11/03 11:25:33;;;;;;;4.28;4.07;;;;;;;12.01;75.04;97568.28;6052183;23;20322;-70
2023/11/03 11:28:00;;;;;;;5.25;5.05;;;;;;;12.07;75.38;97590.44;6025107;23;20019;-72
2023/11/03 11:30:33;;;;;;;4.55;4.35;;;;;;;12.09;75.43;97560.38;6049109;23;20022;-72
2023/11/03 11:33:00;;;;;;;4.35;4.15;;;;;;;12.14;75.60;97600.09;6026817;23;20109;-71
2023/11/03 11:35:37;;;;;;;5.72;4.22;;;;;;;11.58;74.51;97492.22;6036807;23;20094;-73
2023/11/03 11:38:04;;;;;;;5.85;5.55;;;;;;;12.20;75.16;97580.22;6053541;23;20517;-70
2023/11/03 11:40:30;;;;;;;4.07;3.88;;;;;;;12.10;75.21;97561.19;6058055;23;20033;-70